Nasa Shuttle Landing Facility Airport
KTTS : now visible

Airfield :











YOU CAN JOIN US ON...

 
LOGIN :

Register | Disclaimer

   EN    FR    IT 

 









Legend :    VFR   Marginal VFR   IFR   Intensive IFR   Very Intensive IFR
Visi :
Ceiling :
>= 8 km
>= 3000ft
5 to 8 km
1000 to 3000 ft
1500m to 5 km
500 to 1000 ft
800 to 1500m
200 to 500 ft
< 800m
< 200 ft
Symbols :   Thunderstorms  Fog  Heavy snow  Heavy precipitations  Wind > 20 kt






- Airport Elevation : 10 ft


KTTS - Nasa Shuttle Landing Facility

CURRENT METAR :
  • 250221Z AUTO 12007KT 10SM CLR 25/21 A2998 RMK AO2 DZE04DZB13E21 SLP156 $

EXPIRED METARs :
  • 250204Z AUTO 11007KT 10SM FEW140 25/22 A2998 RMK AO2 DZE04 SLP156 $
  • 250156Z AUTO 12006KT 10SM -DZ SCT140 26/22 A2998 RMK AO2 DZB47 SLP156 P0000 T02570215 $
  • 250056Z AUTO 11008KT 10SM CLR 26/22 A2997 RMK AO2 SLP153 T02580218 $
  • 242356Z AUTO 12006KT 10SM SCT023 SCT034 26/22 A2997 RMK AO2 SLP153 T02600220 10282 20260 55008 $

Expired Forecast.
KZMA FIR / North America



MET'MAP, your aeronautical weather chart ! - Copyright ORBIFLY December 2007 - Disclaimer

ORBIFLY MET'MAP TEAM :

Programming & Development : Alexandra Zaïnal
Concept & original design : Baudouin d'Aumeries
Assistance for programming : Marc-Olivier Méhu
Technical & hardware support : Manuel Goepfert

Contact : metmap@orbifly.com




SOURCES & CREDITS :

   NOAA       Earth
Advisory